Alger, OH (45812)

11:28 PM EDT on July 20, 2017 (GMT -0400)
Biggs Engineering building roof | | Change Station

Elev 956 ft 40.77 °N, 83.83 °W | Updated 8 seconds ago

Overcast
Overcast
78.7 °F
Feels Like 82 °F
N
5.0
Wind Variable Wind from SSW
Gusts 5.0 mph

Today
High -- | Low -- °F
--% Chance of Precip.
Yesterday
High -- | Low -- °F
Precip. -- in
Pressure 29.96 in
Visibility 10.0 miles
Clouds Few 4000 ft
Mostly Cloudy 4800 ft
Mostly Cloudy 6000 ft
Heat Index 82 °F
Dew Point 74 °F
Humidity 86%
Rainfall 0.00 in
Snow Depth Not available.
6:21 AM 9:01 PM
Waning Crescent, 7% visible
METAR KAOH 210253Z AUTO 15005KT 10SM FEW040 BKN048 BKN060 26/23 A2999 RMK AO2 SLP146 T02560233 55001
Pressure 29.96 in
Visibility 10.0 miles
Clouds Few 4000 ft
Mostly Cloudy 4800 ft
Mostly Cloudy 6000 ft
Heat Index 82 °F
Dew Point 74 °F
Humidity 86%
Rainfall 0.00 in
Snow Depth Not available.
6:21 AM 9:01 PM
Waning Crescent, 7% visible
METAR KAOH 210253Z AUTO 15005KT 10SM FEW040 BKN048 BKN060 26/23 A2999 RMK AO2 SLP146 T02560233 55001

Get Severe Weather Alerts

Thanks for signing up!

Be on the lookout for a verification email in your inbox.

You'll start receiving the daily forecast at 6 AM.

×

10-Day Weather Forecast

Almanac

Astronomy

Jul. 20, 2017 Rise Set
Actual Time
Civil Twilight
Nautical Twilight
Astronomical Twilight
Moon
Length of Visible Light
Length of Day
Tomorrow will be .
, % of the Moon is Illuminated

Today's Extremes

State Highs State Lows

Community

WunderPhotos

Category 6

Welcome to Category 6. This is the collective home for Weather Underground's featured writeups by Dr. Jeff Masters (right), Bob Henson (left), Chris Burt, and other regular contributors.

Nearby

Air Quality

  Air Quality AQ Index Pollutant
Not available.

Snow Depth

Station Depth Elevation

Earthquake Activity

City Distance Mag. Time & Date
Minimum magnitude displayed is 2.5.

Coastal Water Temperatures

Place Temperature

Stations

Nearby Weather Stations

Station Location Temp. Windchill Dew Point Humidity Wind Precip. Elev Updated Type
                   

Watches & Warnings

There are currently no watches in effect.